Curry, Indiana
Current Conditions -  °F | °C
As of 5:53 AM on Wednesday 22 Oct 2014 (Local Time) from KHUF Reporting Station
Clear Clear  
Wind Chill: 36°   Ceiling: Unl
Heat Index: 36°   Visibility: 10mi
Dew Point: 34°   Wind: 3mph
Humidity: 93%   Direction: 40°NE
Pressure: 30.27"   Gusts: NA
Location:  39.2094°N, 87.3438°W
Report Text: KHUF 220953Z 04003KT 10SM CLR 02/01 A3027 RMK AO2 SLP251 T00220011 $
Loading
Personal Weather Stations






























Interactive Weather Map
Tropical Storm Tracking
New forecast layout! Learn more

10-Day Weather Forecast

Advertisements
Track Severe Weather on mobile